createdAt,value
2022-11-29T00:09:13.103Z,9.39
2022-11-29T00:19:14.407Z,9.37
2022-11-29T00:29:15.817Z,9.35
2022-11-29T00:39:17.208Z,9.35
2022-11-29T00:49:18.645Z,9.35
2022-11-29T00:59:20.117Z,9.38
2022-11-29T01:09:21.478Z,9.33
2022-11-29T01:19:22.810Z,9.38
2022-11-29T01:29:24.547Z,9.37
2022-11-29T01:39:25.992Z,9.37
2022-11-29T01:49:33.159Z,9.39
2022-11-29T01:59:38.777Z,9.39
2022-11-29T02:09:40.103Z,9.36
2022-11-29T02:19:59.496Z,9.39
2022-11-29T02:30:19.106Z,9.36
2022-11-29T02:40:39.796Z,9.35
2022-11-29T02:50:48.308Z,9.33
2022-11-29T03:01:02.787Z,9.32
2022-11-29T03:11:09.302Z,9.32
2022-11-29T03:21:22.542Z,9.33
2022-11-29T03:31:34.912Z,9.34
2022-11-29T03:41:46.591Z,9.29
2022-11-29T03:52:16.961Z,9.24
2022-11-29T04:02:27.724Z,9.24
2022-11-29T04:12:59.462Z,9.21
2022-11-29T04:23:37.155Z,9.15
2022-11-29T04:34:16.196Z,9.03
2022-11-29T04:44:32.494Z,8.92
2022-11-29T04:55:21.647Z,8.72
2022-11-29T05:05:36.637Z,8.57
2022-11-29T05:16:02.542Z,8.47
2022-11-29T05:26:38.219Z,8.37
2022-11-29T05:37:01.658Z,8.41
2022-11-29T05:47:05.812Z,8.32
2022-11-29T05:57:37.880Z,8.28
2022-11-29T06:08:13.114Z,8.25
2022-11-29T06:18:42.486Z,8.24
2022-11-29T06:29:04.538Z,8.20
2022-11-29T06:39:06.307Z,8.17
2022-11-29T06:49:37.333Z,8.15
2022-11-29T06:59:44.349Z,8.18
2022-11-29T07:09:47.304Z,8.18
2022-11-29T07:20:03.636Z,8.19
2022-11-29T07:30:14.357Z,8.21
2022-11-29T07:40:35.952Z,8.19
2022-11-29T07:50:40.559Z,8.17
2022-11-29T08:00:42.696Z,8.12
2022-11-29T08:10:45.138Z,8.16
2022-11-29T08:20:46.568Z,8.27
2022-11-29T08:30:47.906Z,8.19
2022-11-29T08:40:49.418Z,8.14
2022-11-29T08:50:51.456Z,8.33
2022-11-29T09:00:53.129Z,8.34
2022-11-29T09:10:54.856Z,8.38
2022-11-29T09:20:56.204Z,8.44
2022-11-29T09:31:07.798Z,8.47
2022-11-29T09:41:15.678Z,8.50
2022-11-29T09:51:16.947Z,8.58
2022-11-29T10:01:25.513Z,8.65
2022-11-29T10:11:34.920Z,8.74
2022-11-29T10:21:41.547Z,8.79
2022-11-29T10:31:46.821Z,8.87
2022-11-29T10:41:53.763Z,8.88
2022-11-29T10:51:55.107Z,8.93
2022-11-29T11:01:57.641Z,8.95
2022-11-29T11:12:01.713Z,8.96
2022-11-29T11:22:04.025Z,8.99
2022-11-29T11:32:14.958Z,8.98
2022-11-29T11:42:39.278Z,9.01
2022-11-29T11:52:50.687Z,8.99
2022-11-29T12:02:52.375Z,8.99
2022-11-29T12:12:55.712Z,9.01
2022-11-29T12:23:09.373Z,8.96
2022-11-29T12:33:42.795Z,9.02
2022-11-29T12:44:05.231Z,9.01
2022-11-29T12:54:34.330Z,9.04
2022-11-29T13:04:45.816Z,9.02
2022-11-29T13:15:06.729Z,9.02
2022-11-29T13:25:18.927Z,9.02
2022-11-29T13:35:46.932Z,9.04
2022-11-29T13:45:58.537Z,9.03
2022-11-29T13:56:01.626Z,9.20
2022-11-29T14:06:31.136Z,9.18
2022-11-29T14:16:43.893Z,9.18
2022-11-29T14:26:45.251Z,9.19
2022-11-29T14:36:51.949Z,9.11
2022-11-29T14:47:13.863Z,9.07
2022-11-29T14:57:49.355Z,8.99
2022-11-29T15:08:09.319Z,8.91
2022-11-29T15:18:19.803Z,8.82
2022-11-29T15:28:30.473Z,8.80
2022-11-29T15:38:46.078Z,8.82
2022-11-29T15:48:47.483Z,8.80
2022-11-29T15:58:49.820Z,8.75
2022-11-29T16:08:51.902Z,8.75
2022-11-29T16:18:53.436Z,8.73
2022-11-29T16:28:58.622Z,8.76
2022-11-29T16:39:22.905Z,8.70
2022-11-29T16:49:34.435Z,8.67
2022-11-29T16:59:38.690Z,8.57
2022-11-29T17:09:40.072Z,8.44
2022-11-29T17:19:41.436Z,8.39
2022-11-29T17:29:42.750Z,8.31
2022-11-29T17:39:47.123Z,8.22
2022-11-29T17:49:48.946Z,8.08
2022-11-29T17:59:50.444Z,7.98
2022-11-29T18:09:51.803Z,7.98
2022-11-29T18:19:53.200Z,7.93
2022-11-29T18:29:54.580Z,7.96
2022-11-29T18:39:57.003Z,7.95
2022-11-29T18:49:58.316Z,7.99
2022-11-29T18:59:59.749Z,7.96
2022-11-29T19:10:01.146Z,7.95
2022-11-29T19:20:02.563Z,7.98
2022-11-29T19:30:04.544Z,8.01
2022-11-29T19:40:06.719Z,7.99
2022-11-29T19:50:08.614Z,7.99
2022-11-29T20:00:10.504Z,8.01
2022-11-29T20:10:11.998Z,8.04
2022-11-29T20:20:13.936Z,8.02
2022-11-29T20:30:15.426Z,8.01
2022-11-29T20:40:20.843Z,8.02
2022-11-29T20:50:27.962Z,8.04
2022-11-29T21:00:29.362Z,8.12
2022-11-29T21:10:30.702Z,8.05
2022-11-29T21:20:32.607Z,8.13
2022-11-29T21:30:34.216Z,8.05
2022-11-29T21:40:35.586Z,8.08
2022-11-29T21:50:36.943Z,8.06
2022-11-29T22:00:38.263Z,8.14
2022-11-29T22:10:39.610Z,8.14
2022-11-29T22:20:40.939Z,8.12
2022-11-29T22:30:42.287Z,8.13
2022-11-29T22:40:43.615Z,8.10
2022-11-29T22:50:44.925Z,8.13
2022-11-29T23:00:46.290Z,8.12
2022-11-29T23:10:56.441Z,8.16
2022-11-29T23:21:09.801Z,8.18
2022-11-29T23:31:11.190Z,8.23
2022-11-29T23:41:13.081Z,8.22
2022-11-29T23:51:14.967Z,8.27
